Tofino Long Beach Airport Tofino CA
ICAO: CYAZ
IATA: YAZ
Category: Medium
Scheduled Services: Yes

Elevation: 80 ft
TransAlt. 9000 ft.

Airport Communications:
VANCOUVER CNTR:132.9
PACIFIC RDO:123.25

CYAZ Zoom In..

If Map Doesn't Load, Click Here

Runways:

(A) RW 07 length 4999 ft width 150 ft
---- / hdg 71

(B) RW 11 length 4997 ft width 100 ft
---- / hdg 107

(C) RW 16 length 5000 ft width 100 ft
---- / hdg 156

(D) RW 25 length 4999 ft width 150 ft
---- / hdg 251

(E) RW 29 length 4997 ft width 100 ft
---- / hdg 287

(F) RW 34 length 5000 ft width 100 ft
---- / hdg 336

Location; CYAZ
Day. 24 / Time. 01.00 Zulu
* Altimeter: 30.18
* Temperature: 14° c. 57.2°f.
* Wind from: 280° Speed 07 kn.
Dewpoint: 11° c.
Visibility: 15 Statute Miles.
Clouds: Few 1500 ft.
Clouds: Few 2000 ft.

CYAZ 240100Z 28007KT 15SM FEW015 FEW020 14/11 A3018 RMK CF1SC1 CF TR LAST STFD OBS/NEXT 241300UTC SLP221


Wind From 280°
Speed 07 kn.

 
 
jpsmedia.com for Web Design worldairports.se 2018   terms of use